sensor_id;sensor_type;location;lat;lon;timestamp;P1;durP1;ratioP1;P2;durP2;ratioP2
15354;SDS011;7777;52.254;9.618;2023-06-22T00:01:31;6.03;;;5.43;;
15354;SDS011;7777;52.254;9.618;2023-06-22T00:04:43;6.20;;;5.40;;
15354;SDS011;7777;52.254;9.618;2023-06-22T00:08:14;6.60;;;5.53;;
15354;SDS011;7777;52.254;9.618;2023-06-22T00:14:46;9.97;;;6.40;;
15354;SDS011;7777;52.254;9.618;2023-06-22T00:17:32;7.13;;;5.97;;
15354;SDS011;7777;52.254;9.618;2023-06-22T00:20:19;8.00;;;5.67;;
15354;SDS011;7777;52.254;9.618;2023-06-22T00:22:45;8.87;;;5.80;;
15354;SDS011;7777;52.254;9.618;2023-06-22T00:25:11;8.20;;;6.40;;
15354;SDS011;7777;52.254;9.618;2023-06-22T00:27:37;9.43;;;6.13;;
15354;SDS011;7777;52.254;9.618;2023-06-22T00:30:03;7.00;;;6.30;;
15354;SDS011;7777;52.254;9.618;2023-06-22T00:32:29;10.30;;;6.53;;
15354;SDS011;7777;52.254;9.618;2023-06-22T00:34:55;8.40;;;5.37;;
15354;SDS011;7777;52.254;9.618;2023-06-22T00:37:20;8.13;;;6.40;;
15354;SDS011;7777;52.254;9.618;2023-06-22T00:39:50;9.23;;;6.10;;
15354;SDS011;7777;52.254;9.618;2023-06-22T00:42:16;10.80;;;6.07;;
15354;SDS011;7777;52.254;9.618;2023-06-22T00:44:43;9.43;;;6.70;;
15354;SDS011;7777;52.254;9.618;2023-06-22T00:47:10;12.07;;;6.77;;
15354;SDS011;7777;52.254;9.618;2023-06-22T00:49:38;10.27;;;6.17;;
15354;SDS011;7777;52.254;9.618;2023-06-22T00:52:04;11.90;;;5.67;;
15354;SDS011;7777;52.254;9.618;2023-06-22T00:54:41;8.67;;;5.57;;
15354;SDS011;7777;52.254;9.618;2023-06-22T00:57:13;15.53;;;6.63;;
15354;SDS011;7777;52.254;9.618;2023-06-22T00:59:43;10.27;;;5.83;;
15354;SDS011;7777;52.254;9.618;2023-06-22T01:02:13;10.33;;;6.27;;
15354;SDS011;7777;52.254;9.618;2023-06-22T01:04:39;11.83;;;6.43;;
15354;SDS011;7777;52.254;9.618;2023-06-22T01:09:41;21.53;;;7.00;;
15354;SDS011;7777;52.254;9.618;2023-06-22T01:12:19;7.73;;;6.03;;
15354;SDS011;7777;52.254;9.618;2023-06-22T01:14:47;12.33;;;6.67;;
15354;SDS011;7777;52.254;9.618;2023-06-22T01:17:30;9.07;;;6.43;;
15354;SDS011;7777;52.254;9.618;2023-06-22T01:19:57;14.43;;;7.43;;
15354;SDS011;7777;52.254;9.618;2023-06-22T01:22:26;17.67;;;6.57;;
15354;SDS011;7777;52.254;9.618;2023-06-22T01:27:53;11.70;;;6.73;;
15354;SDS011;7777;52.254;9.618;2023-06-22T01:30:28;16.70;;;6.47;;
15354;SDS011;7777;52.254;9.618;2023-06-22T01:32:56;14.43;;;6.13;;
15354;SDS011;7777;52.254;9.618;2023-06-22T01:35:23;10.67;;;6.03;;
15354;SDS011;7777;52.254;9.618;2023-06-22T01:37:50;16.93;;;7.80;;
15354;SDS011;7777;52.254;9.618;2023-06-22T01:40:16;9.63;;;5.53;;
15354;SDS011;7777;52.254;9.618;2023-06-22T01:42:43;15.50;;;6.97;;
15354;SDS011;7777;52.254;9.618;2023-06-22T01:45:10;14.30;;;6.63;;
15354;SDS011;7777;52.254;9.618;2023-06-22T01:47:36;11.57;;;6.43;;
15354;SDS011;7777;52.254;9.618;2023-06-22T01:50:03;13.40;;;6.07;;
15354;SDS011;7777;52.254;9.618;2023-06-22T01:52:30;9.83;;;6.37;;
15354;SDS011;7777;52.254;9.618;2023-06-22T01:54:55;11.57;;;6.97;;
15354;SDS011;7777;52.254;9.618;2023-06-22T01:57:23;10.20;;;6.80;;
15354;SDS011;7777;52.254;9.618;2023-06-22T02:00:04;14.17;;;6.57;;
15354;SDS011;7777;52.254;9.618;2023-06-22T02:02:40;11.50;;;6.00;;
15354;SDS011;7777;52.254;9.618;2023-06-22T02:05:22;11.97;;;6.53;;
15354;SDS011;7777;52.254;9.618;2023-06-22T02:08:13;12.57;;;6.40;;
15354;SDS011;7777;52.254;9.618;2023-06-22T02:10:43;33.37;;;7.37;;
15354;SDS011;7777;52.254;9.618;2023-06-22T02:13:10;13.73;;;6.93;;
15354;SDS011;7777;52.254;9.618;2023-06-22T02:15:38;15.07;;;7.10;;
15354;SDS011;7777;52.254;9.618;2023-06-22T02:18:04;16.53;;;8.00;;
15354;SDS011;7777;52.254;9.618;2023-06-22T02:20:30;15.97;;;7.20;;
15354;SDS011;7777;52.254;9.618;2023-06-22T02:22:56;12.23;;;6.67;;
15354;SDS011;7777;52.254;9.618;2023-06-22T02:25:22;15.47;;;7.43;;
15354;SDS011;7777;52.254;9.618;2023-06-22T02:27:47;15.60;;;7.57;;
15354;SDS011;7777;52.254;9.618;2023-06-22T02:30:13;12.43;;;7.47;;
15354;SDS011;7777;52.254;9.618;2023-06-22T02:32:41;24.30;;;6.93;;
15354;SDS011;7777;52.254;9.618;2023-06-22T02:35:08;20.63;;;7.53;;
15354;SDS011;7777;52.254;9.618;2023-06-22T02:37:37;23.97;;;8.50;;
15354;SDS011;7777;52.254;9.618;2023-06-22T02:40:06;19.83;;;8.37;;
15354;SDS011;7777;52.254;9.618;2023-06-22T02:42:36;10.57;;;8.13;;
15354;SDS011;7777;52.254;9.618;2023-06-22T02:45:04;13.03;;;8.07;;
15354;SDS011;7777;52.254;9.618;2023-06-22T02:47:30;24.30;;;8.03;;
15354;SDS011;7777;52.254;9.618;2023-06-22T02:49:56;21.60;;;7.73;;
15354;SDS011;7777;52.254;9.618;2023-06-22T02:52:22;14.20;;;7.60;;
15354;SDS011;7777;52.254;9.618;2023-06-22T02:54:48;19.87;;;7.67;;
15354;SDS011;7777;52.254;9.618;2023-06-22T02:57:14;11.30;;;7.87;;
15354;SDS011;7777;52.254;9.618;2023-06-22T02:59:42;17.23;;;8.20;;
15354;SDS011;7777;52.254;9.618;2023-06-22T03:02:08;13.00;;;7.40;;
15354;SDS011;7777;52.254;9.618;2023-06-22T03:04:35;13.23;;;7.43;;
15354;SDS011;7777;52.254;9.618;2023-06-22T03:07:01;20.17;;;6.80;;
15354;SDS011;7777;52.254;9.618;2023-06-22T03:09:27;15.80;;;8.10;;
15354;SDS011;7777;52.254;9.618;2023-06-22T03:11:53;17.80;;;7.83;;
15354;SDS011;7777;52.254;9.618;2023-06-22T03:14:20;21.00;;;9.17;;
15354;SDS011;7777;52.254;9.618;2023-06-22T03:16:46;22.60;;;7.83;;
15354;SDS011;7777;52.254;9.618;2023-06-22T03:19:12;18.63;;;8.20;;
15354;SDS011;7777;52.254;9.618;2023-06-22T03:21:38;14.80;;;7.70;;
15354;SDS011;7777;52.254;9.618;2023-06-22T03:24:05;15.60;;;7.53;;
15354;SDS011;7777;52.254;9.618;2023-06-22T03:26:32;16.20;;;8.83;;
15354;SDS011;7777;52.254;9.618;2023-06-22T03:28:58;16.87;;;7.77;;
15354;SDS011;7777;52.254;9.618;2023-06-22T03:31:24;20.37;;;8.13;;
15354;SDS011;7777;52.254;9.618;2023-06-22T03:33:49;19.70;;;7.80;;
15354;SDS011;7777;52.254;9.618;2023-06-22T03:36:19;25.63;;;8.73;;
15354;SDS011;7777;52.254;9.618;2023-06-22T03:38:45;15.37;;;7.23;;
15354;SDS011;7777;52.254;9.618;2023-06-22T03:41:12;18.73;;;7.93;;
15354;SDS011;7777;52.254;9.618;2023-06-22T03:43:40;13.73;;;7.17;;
15354;SDS011;7777;52.254;9.618;2023-06-22T03:46:13;22.60;;;8.03;;
15354;SDS011;7777;52.254;9.618;2023-06-22T03:48:43;24.53;;;10.07;;
15354;SDS011;7777;52.254;9.618;2023-06-22T03:51:28;17.30;;;8.90;;
15354;SDS011;7777;52.254;9.618;2023-06-22T03:54:16;16.50;;;9.53;;
15354;SDS011;7777;52.254;9.618;2023-06-22T03:56:46;19.30;;;9.73;;
15354;SDS011;7777;52.254;9.618;2023-06-22T03:59:11;24.33;;;9.60;;
15354;SDS011;7777;52.254;9.618;2023-06-22T04:01:37;17.00;;;9.47;;
15354;SDS011;7777;52.254;9.618;2023-06-22T04:04:03;14.03;;;8.57;;
15354;SDS011;7777;52.254;9.618;2023-06-22T04:06:29;16.03;;;9.57;;
15354;SDS011;7777;52.254;9.618;2023-06-22T04:08:54;15.87;;;9.13;;
15354;SDS011;7777;52.254;9.618;2023-06-22T04:11:20;21.47;;;10.13;;
15354;SDS011;7777;52.254;9.618;2023-06-22T04:13:46;14.77;;;9.00;;
15354;SDS011;7777;52.254;9.618;2023-06-22T04:16:13;10.30;;;8.37;;
15354;SDS011;7777;52.254;9.618;2023-06-22T04:18:39;21.90;;;9.23;;
15354;SDS011;7777;52.254;9.618;2023-06-22T04:21:05;11.60;;;9.47;;
15354;SDS011;7777;52.254;9.618;2023-06-22T04:23:31;13.30;;;9.03;;
15354;SDS011;7777;52.254;9.618;2023-06-22T04:25:56;11.50;;;9.07;;
15354;SDS011;7777;52.254;9.618;2023-06-22T04:28:24;14.17;;;8.37;;
15354;SDS011;7777;52.254;9.618;2023-06-22T04:30:50;16.77;;;9.67;;
15354;SDS011;7777;52.254;9.618;2023-06-22T04:33:16;10.27;;;8.43;;
15354;SDS011;7777;52.254;9.618;2023-06-22T04:35:44;16.17;;;8.80;;
15354;SDS011;7777;52.254;9.618;2023-06-22T04:41:09;23.47;;;9.67;;
15354;SDS011;7777;52.254;9.618;2023-06-22T04:43:48;16.50;;;8.90;;
15354;SDS011;7777;52.254;9.618;2023-06-22T04:46:18;11.20;;;8.03;;
15354;SDS011;7777;52.254;9.618;2023-06-22T04:48:44;12.70;;;8.40;;
15354;SDS011;7777;52.254;9.618;2023-06-22T04:51:13;15.73;;;8.67;;
15354;SDS011;7777;52.254;9.618;2023-06-22T04:53:55;18.27;;;8.37;;
15354;SDS011;7777;52.254;9.618;2023-06-22T04:56:25;10.47;;;9.37;;
15354;SDS011;7777;52.254;9.618;2023-06-22T04:58:53;12.13;;;8.77;;
15354;SDS011;7777;52.254;9.618;2023-06-22T05:01:21;11.50;;;9.43;;
15354;SDS011;7777;52.254;9.618;2023-06-22T05:03:48;11.50;;;9.53;;
15354;SDS011;7777;52.254;9.618;2023-06-22T05:06:14;12.03;;;10.37;;
15354;SDS011;7777;52.254;9.618;2023-06-22T05:08:41;18.43;;;11.10;;
15354;SDS011;7777;52.254;9.618;2023-06-22T05:11:06;15.40;;;11.37;;
15354;SDS011;7777;52.254;9.618;2023-06-22T05:13:32;12.70;;;10.57;;
15354;SDS011;7777;52.254;9.618;2023-06-22T05:15:58;16.10;;;13.37;;
15354;SDS011;7777;52.254;9.618;2023-06-22T05:18:30;14.17;;;12.50;;
15354;SDS011;7777;52.254;9.618;2023-06-22T05:20:56;12.63;;;11.37;;
15354;SDS011;7777;52.254;9.618;2023-06-22T05:23:23;16.60;;;12.10;;
15354;SDS011;7777;52.254;9.618;2023-06-22T05:25:49;14.37;;;12.87;;
15354;SDS011;7777;52.254;9.618;2023-06-22T05:28:14;15.07;;;11.87;;
15354;SDS011;7777;52.254;9.618;2023-06-22T05:30:40;14.43;;;13.03;;
15354;SDS011;7777;52.254;9.618;2023-06-22T05:33:06;15.37;;;13.77;;
15354;SDS011;7777;52.254;9.618;2023-06-22T05:35:32;16.03;;;14.07;;
15354;SDS011;7777;52.254;9.618;2023-06-22T05:37:57;13.77;;;12.37;;
15354;SDS011;7777;52.254;9.618;2023-06-22T05:40:23;13.67;;;12.47;;
15354;SDS011;7777;52.254;9.618;2023-06-22T05:42:49;14.40;;;11.73;;
15354;SDS011;7777;52.254;9.618;2023-06-22T05:45:14;15.07;;;13.43;;
15354;SDS011;7777;52.254;9.618;2023-06-22T05:47:40;15.77;;;12.10;;
15354;SDS011;7777;52.254;9.618;2023-06-22T05:50:06;16.00;;;13.07;;
15354;SDS011;7777;52.254;9.618;2023-06-22T05:52:33;14.87;;;11.63;;
15354;SDS011;7777;52.254;9.618;2023-06-22T05:54:59;17.87;;;13.30;;
15354;SDS011;7777;52.254;9.618;2023-06-22T05:57:27;16.57;;;12.33;;
15354;SDS011;7777;52.254;9.618;2023-06-22T05:59:53;20.40;;;14.87;;
15354;SDS011;7777;52.254;9.618;2023-06-22T06:02:19;17.07;;;13.27;;
15354;SDS011;7777;52.254;9.618;2023-06-22T06:04:45;13.57;;;12.10;;
15354;SDS011;7777;52.254;9.618;2023-06-22T06:07:11;16.53;;;12.90;;
15354;SDS011;7777;52.254;9.618;2023-06-22T06:09:36;15.60;;;12.63;;
15354;SDS011;7777;52.254;9.618;2023-06-22T06:12:02;14.40;;;12.90;;
15354;SDS011;7777;52.254;9.618;2023-06-22T06:14:29;18.80;;;14.43;;
15354;SDS011;7777;52.254;9.618;2023-06-22T06:16:55;14.33;;;12.20;;
15354;SDS011;7777;52.254;9.618;2023-06-22T06:19:20;14.53;;;12.67;;
15354;SDS011;7777;52.254;9.618;2023-06-22T06:21:46;14.73;;;13.30;;
15354;SDS011;7777;52.254;9.618;2023-06-22T06:24:12;15.43;;;13.83;;
15354;SDS011;7777;52.254;9.618;2023-06-22T06:26:38;14.63;;;12.93;;
15354;SDS011;7777;52.254;9.618;2023-06-22T06:29:04;17.93;;;13.53;;
15354;SDS011;7777;52.254;9.618;2023-06-22T06:31:30;14.33;;;12.83;;
15354;SDS011;7777;52.254;9.618;2023-06-22T06:33:55;16.90;;;13.77;;
15354;SDS011;7777;52.254;9.618;2023-06-22T06:36:21;15.87;;;14.27;;
15354;SDS011;7777;52.254;9.618;2023-06-22T06:38:47;16.50;;;13.23;;
15354;SDS011;7777;52.254;9.618;2023-06-22T06:41:13;14.33;;;12.93;;
15354;SDS011;7777;52.254;9.618;2023-06-22T06:43:40;14.47;;;12.97;;
15354;SDS011;7777;52.254;9.618;2023-06-22T06:46:08;12.30;;;11.00;;
15354;SDS011;7777;52.254;9.618;2023-06-22T06:48:34;13.43;;;12.03;;
15354;SDS011;7777;52.254;9.618;2023-06-22T06:51:00;14.67;;;11.97;;
15354;SDS011;7777;52.254;9.618;2023-06-22T06:53:26;14.27;;;12.47;;
15354;SDS011;7777;52.254;9.618;2023-06-22T06:55:53;14.23;;;12.60;;
15354;SDS011;7777;52.254;9.618;2023-06-22T06:58:19;12.90;;;10.43;;
15354;SDS011;7777;52.254;9.618;2023-06-22T07:00:45;13.53;;;12.13;;
15354;SDS011;7777;52.254;9.618;2023-06-22T07:03:11;14.90;;;12.23;;
15354;SDS011;7777;52.254;9.618;2023-06-22T07:05:36;12.73;;;11.43;;
15354;SDS011;7777;52.254;9.618;2023-06-22T07:08:02;13.57;;;11.97;;
15354;SDS011;7777;52.254;9.618;2023-06-22T07:10:28;12.93;;;11.43;;
15354;SDS011;7777;52.254;9.618;2023-06-22T07:12:54;13.57;;;11.13;;
15354;SDS011;7777;52.254;9.618;2023-06-22T07:15:20;12.70;;;10.87;;
15354;SDS011;7777;52.254;9.618;2023-06-22T07:17:46;11.83;;;10.60;;
15354;SDS011;7777;52.254;9.618;2023-06-22T07:20:12;13.27;;;11.47;;
15354;SDS011;7777;52.254;9.618;2023-06-22T07:22:38;12.83;;;11.33;;
15354;SDS011;7777;52.254;9.618;2023-06-22T07:25:05;14.73;;;11.20;;
15354;SDS011;7777;52.254;9.618;2023-06-22T07:27:38;15.97;;;11.60;;
15354;SDS011;7777;52.254;9.618;2023-06-22T07:30:08;12.13;;;10.70;;
15354;SDS011;7777;52.254;9.618;2023-06-22T07:32:35;14.13;;;10.30;;
15354;SDS011;7777;52.254;9.618;2023-06-22T07:35:01;17.57;;;10.23;;
15354;SDS011;7777;52.254;9.618;2023-06-22T07:37:28;17.10;;;9.37;;
15354;SDS011;7777;52.254;9.618;2023-06-22T07:39:54;12.90;;;9.37;;
15354;SDS011;7777;52.254;9.618;2023-06-22T07:42:26;12.47;;;10.30;;
15354;SDS011;7777;52.254;9.618;2023-06-22T07:44:52;12.83;;;10.33;;
15354;SDS011;7777;52.254;9.618;2023-06-22T07:47:19;11.07;;;9.17;;
15354;SDS011;7777;52.254;9.618;2023-06-22T07:49:46;11.53;;;9.90;;
15354;SDS011;7777;52.254;9.618;2023-06-22T07:52:12;13.03;;;11.53;;
15354;SDS011;7777;52.254;9.618;2023-06-22T07:54:37;15.13;;;10.80;;
15354;SDS011;7777;52.254;9.618;2023-06-22T07:57:03;13.47;;;10.53;;
15354;SDS011;7777;52.254;9.618;2023-06-22T07:59:30;14.43;;;10.70;;
15354;SDS011;7777;52.254;9.618;2023-06-22T08:01:56;11.37;;;10.10;;
15354;SDS011;7777;52.254;9.618;2023-06-22T08:04:21;14.70;;;10.80;;
15354;SDS011;7777;52.254;9.618;2023-06-22T08:06:50;16.77;;;10.10;;
15354;SDS011;7777;52.254;9.618;2023-06-22T08:09:16;14.07;;;10.00;;
15354;SDS011;7777;52.254;9.618;2023-06-22T08:11:41;11.83;;;9.73;;
15354;SDS011;7777;52.254;9.618;2023-06-22T08:14:07;12.40;;;9.30;;
15354;SDS011;7777;52.254;9.618;2023-06-22T08:16:33;11.90;;;9.47;;
15354;SDS011;7777;52.254;9.618;2023-06-22T08:18:59;14.83;;;10.10;;
15354;SDS011;7777;52.254;9.618;2023-06-22T08:21:24;13.23;;;9.10;;
15354;SDS011;7777;52.254;9.618;2023-06-22T08:23:50;12.13;;;9.27;;
15354;SDS011;7777;52.254;9.618;2023-06-22T08:26:16;9.80;;;8.73;;
15354;SDS011;7777;52.254;9.618;2023-06-22T08:28:42;11.27;;;9.57;;
15354;SDS011;7777;52.254;9.618;2023-06-22T08:31:07;11.73;;;9.47;;
15354;SDS011;7777;52.254;9.618;2023-06-22T08:33:33;13.17;;;8.97;;
15354;SDS011;7777;52.254;9.618;2023-06-22T08:35:59;13.13;;;9.60;;
15354;SDS011;7777;52.254;9.618;2023-06-22T08:38:25;12.83;;;8.50;;
15354;SDS011;7777;52.254;9.618;2023-06-22T08:40:51;14.30;;;8.13;;
15354;SDS011;7777;52.254;9.618;2023-06-22T08:43:16;14.40;;;8.53;;
15354;SDS011;7777;52.254;9.618;2023-06-22T08:45:42;13.70;;;9.90;;
15354;SDS011;7777;52.254;9.618;2023-06-22T08:48:08;13.03;;;8.63;;
15354;SDS011;7777;52.254;9.618;2023-06-22T08:50:34;16.27;;;9.80;;
15354;SDS011;7777;52.254;9.618;2023-06-22T08:52:59;9.57;;;8.47;;
15354;SDS011;7777;52.254;9.618;2023-06-22T08:55:25;11.87;;;9.83;;
15354;SDS011;7777;52.254;9.618;2023-06-22T08:57:51;9.97;;;7.63;;
15354;SDS011;7777;52.254;9.618;2023-06-22T09:00:17;13.03;;;8.70;;
15354;SDS011;7777;52.254;9.618;2023-06-22T09:02:45;12.20;;;7.40;;
15354;SDS011;7777;52.254;9.618;2023-06-22T09:05:12;10.67;;;8.43;;
15354;SDS011;7777;52.254;9.618;2023-06-22T09:07:38;12.80;;;8.93;;
15354;SDS011;7777;52.254;9.618;2023-06-22T09:10:04;10.77;;;8.07;;
15354;SDS011;7777;52.254;9.618;2023-06-22T09:12:31;10.17;;;8.60;;
15354;SDS011;7777;52.254;9.618;2023-06-22T09:14:58;10.30;;;8.67;;
15354;SDS011;7777;52.254;9.618;2023-06-22T09:17:25;10.07;;;8.13;;
15354;SDS011;7777;52.254;9.618;2023-06-22T09:19:52;12.47;;;9.17;;
15354;SDS011;7777;52.254;9.618;2023-06-22T09:22:18;11.50;;;9.03;;
15354;SDS011;7777;52.254;9.618;2023-06-22T09:24:44;10.00;;;9.00;;
15354;SDS011;7777;52.254;9.618;2023-06-22T09:27:09;14.83;;;9.77;;
15354;SDS011;7777;52.254;9.618;2023-06-22T09:29:35;11.00;;;9.10;;
15354;SDS011;7777;52.254;9.618;2023-06-22T09:32:01;11.80;;;8.90;;
15354;SDS011;7777;52.254;9.618;2023-06-22T09:34:27;15.07;;;9.97;;
15354;SDS011;7777;52.254;9.618;2023-06-22T09:36:53;9.80;;;8.73;;
15354;SDS011;7777;52.254;9.618;2023-06-22T09:39:18;12.10;;;9.37;;
15354;SDS011;7777;52.254;9.618;2023-06-22T09:41:44;13.53;;;10.17;;
15354;SDS011;7777;52.254;9.618;2023-06-22T09:44:10;13.40;;;9.93;;
15354;SDS011;7777;52.254;9.618;2023-06-22T09:46:36;13.43;;;10.47;;
15354;SDS011;7777;52.254;9.618;2023-06-22T09:49:01;12.30;;;8.80;;
15354;SDS011;7777;52.254;9.618;2023-06-22T09:51:27;11.27;;;9.47;;
15354;SDS011;7777;52.254;9.618;2023-06-22T09:53:53;12.30;;;9.80;;
15354;SDS011;7777;52.254;9.618;2023-06-22T09:56:19;13.60;;;9.73;;
15354;SDS011;7777;52.254;9.618;2023-06-22T09:58:45;13.00;;;8.90;;
15354;SDS011;7777;52.254;9.618;2023-06-22T10:01:12;12.27;;;9.87;;
15354;SDS011;7777;52.254;9.618;2023-06-22T10:03:42;9.97;;;8.23;;
15354;SDS011;7777;52.254;9.618;2023-06-22T10:06:07;14.40;;;9.60;;
15354;SDS011;7777;52.254;9.618;2023-06-22T10:08:34;9.50;;;8.17;;
15354;SDS011;7777;52.254;9.618;2023-06-22T10:11:01;12.97;;;9.20;;
15354;SDS011;7777;52.254;9.618;2023-06-22T10:13:26;15.57;;;10.83;;
15354;SDS011;7777;52.254;9.618;2023-06-22T10:15:52;12.53;;;10.40;;
15354;SDS011;7777;52.254;9.618;2023-06-22T10:18:18;14.47;;;9.57;;
15354;SDS011;7777;52.254;9.618;2023-06-22T10:20:48;11.70;;;9.37;;
15354;SDS011;7777;52.254;9.618;2023-06-22T10:23:16;13.87;;;9.80;;
15354;SDS011;7777;52.254;9.618;2023-06-22T10:25:42;12.53;;;9.47;;
15354;SDS011;7777;52.254;9.618;2023-06-22T10:28:08;11.60;;;10.40;;
15354;SDS011;7777;52.254;9.618;2023-06-22T10:30:34;13.60;;;10.33;;
15354;SDS011;7777;52.254;9.618;2023-06-22T10:33:00;13.20;;;9.57;;
15354;SDS011;7777;52.254;9.618;2023-06-22T10:35:25;14.17;;;11.10;;
15354;SDS011;7777;52.254;9.618;2023-06-22T10:37:52;15.40;;;10.90;;
15354;SDS011;7777;52.254;9.618;2023-06-22T10:40:19;12.00;;;10.20;;
15354;SDS011;7777;52.254;9.618;2023-06-22T10:42:45;11.13;;;9.60;;
15354;SDS011;7777;52.254;9.618;2023-06-22T10:45:11;14.10;;;10.80;;
15354;SDS011;7777;52.254;9.618;2023-06-22T10:47:37;14.27;;;9.60;;
15354;SDS011;7777;52.254;9.618;2023-06-22T10:50:03;14.07;;;11.90;;
15354;SDS011;7777;52.254;9.618;2023-06-22T10:52:30;14.27;;;10.63;;
15354;SDS011;7777;52.254;9.618;2023-06-22T10:54:56;11.87;;;10.00;;
15354;SDS011;7777;52.254;9.618;2023-06-22T10:57:22;13.27;;;11.53;;
15354;SDS011;7777;52.254;9.618;2023-06-22T10:59:48;15.53;;;12.23;;
15354;SDS011;7777;52.254;9.618;2023-06-22T11:02:14;14.37;;;12.13;;
15354;SDS011;7777;52.254;9.618;2023-06-22T11:04:40;14.07;;;11.33;;
15354;SDS011;7777;52.254;9.618;2023-06-22T11:07:05;17.73;;;12.57;;
15354;SDS011;7777;52.254;9.618;2023-06-22T11:09:31;15.63;;;12.20;;
15354;SDS011;7777;52.254;9.618;2023-06-22T11:11:57;14.00;;;12.50;;
15354;SDS011;7777;52.254;9.618;2023-06-22T11:14:24;14.63;;;13.07;;
15354;SDS011;7777;52.254;9.618;2023-06-22T11:16:50;17.17;;;14.73;;
15354;SDS011;7777;52.254;9.618;2023-06-22T11:19:16;14.40;;;12.97;;
15354;SDS011;7777;52.254;9.618;2023-06-22T11:21:42;15.63;;;12.93;;
15354;SDS011;7777;52.254;9.618;2023-06-22T11:24:08;15.13;;;12.83;;
15354;SDS011;7777;52.254;9.618;2023-06-22T11:26:33;13.53;;;12.10;;
15354;SDS011;7777;52.254;9.618;2023-06-22T11:29:00;18.23;;;14.10;;
15354;SDS011;7777;52.254;9.618;2023-06-22T11:31:25;18.53;;;15.20;;
15354;SDS011;7777;52.254;9.618;2023-06-22T11:33:51;14.73;;;13.00;;
15354;SDS011;7777;52.254;9.618;2023-06-22T11:36:17;18.53;;;11.87;;
15354;SDS011;7777;52.254;9.618;2023-06-22T11:38:43;14.47;;;12.53;;
15354;SDS011;7777;52.254;9.618;2023-06-22T11:41:09;17.83;;;12.40;;
15354;SDS011;7777;52.254;9.618;2023-06-22T11:43:35;15.90;;;12.27;;
15354;SDS011;7777;52.254;9.618;2023-06-22T11:46:02;15.70;;;12.97;;
15354;SDS011;7777;52.254;9.618;2023-06-22T11:48:29;14.93;;;11.80;;
15354;SDS011;7777;52.254;9.618;2023-06-22T11:50:55;11.57;;;10.17;;
15354;SDS011;7777;52.254;9.618;2023-06-22T11:53:21;16.03;;;11.93;;
15354;SDS011;7777;52.254;9.618;2023-06-22T11:55:49;13.37;;;11.00;;
15354;SDS011;7777;52.254;9.618;2023-06-22T11:58:15;12.37;;;9.93;;
15354;SDS011;7777;52.254;9.618;2023-06-22T12:00:41;10.97;;;9.87;;
15354;SDS011;7777;52.254;9.618;2023-06-22T12:03:07;11.63;;;10.27;;
15354;SDS011;7777;52.254;9.618;2023-06-22T12:05:34;12.80;;;11.60;;
15354;SDS011;7777;52.254;9.618;2023-06-22T12:08:00;12.40;;;11.10;;
15354;SDS011;7777;52.254;9.618;2023-06-22T12:10:26;11.70;;;10.50;;
15354;SDS011;7777;52.254;9.618;2023-06-22T12:12:53;11.80;;;10.67;;
15354;SDS011;7777;52.254;9.618;2023-06-22T12:15:19;10.93;;;9.47;;
15354;SDS011;7777;52.254;9.618;2023-06-22T12:17:45;11.50;;;9.97;;
15354;SDS011;7777;52.254;9.618;2023-06-22T12:20:13;11.07;;;9.73;;
15354;SDS011;7777;52.254;9.618;2023-06-22T12:22:39;11.63;;;10.40;;
15354;SDS011;7777;52.254;9.618;2023-06-22T12:25:06;18.73;;;10.60;;
15354;SDS011;7777;52.254;9.618;2023-06-22T12:27:33;13.43;;;9.70;;
15354;SDS011;7777;52.254;9.618;2023-06-22T12:29:59;10.17;;;9.17;;
15354;SDS011;7777;52.254;9.618;2023-06-22T12:32:25;10.60;;;9.50;;
15354;SDS011;7777;52.254;9.618;2023-06-22T12:34:51;11.60;;;8.93;;
15354;SDS011;7777;52.254;9.618;2023-06-22T12:37:17;11.27;;;9.90;;
15354;SDS011;7777;52.254;9.618;2023-06-22T12:39:43;9.97;;;9.07;;
15354;SDS011;7777;52.254;9.618;2023-06-22T12:42:09;10.37;;;9.30;;
15354;SDS011;7777;52.254;9.618;2023-06-22T12:44:37;11.27;;;10.07;;
15354;SDS011;7777;52.254;9.618;2023-06-22T12:47:04;9.97;;;8.97;;
15354;SDS011;7777;52.254;9.618;2023-06-22T12:49:30;11.67;;;9.53;;
15354;SDS011;7777;52.254;9.618;2023-06-22T12:51:56;10.47;;;9.47;;
15354;SDS011;7777;52.254;9.618;2023-06-22T12:54:22;11.07;;;9.87;;
15354;SDS011;7777;52.254;9.618;2023-06-22T12:56:49;13.07;;;9.80;;
15354;SDS011;7777;52.254;9.618;2023-06-22T12:59:15;12.03;;;10.83;;
15354;SDS011;7777;52.254;9.618;2023-06-22T13:01:44;17.50;;;9.97;;
15354;SDS011;7777;52.254;9.618;2023-06-22T13:04:11;13.60;;;10.43;;
15354;SDS011;7777;52.254;9.618;2023-06-22T13:06:43;11.17;;;9.50;;
15354;SDS011;7777;52.254;9.618;2023-06-22T13:09:13;13.33;;;9.90;;
15354;SDS011;7777;52.254;9.618;2023-06-22T13:11:40;10.40;;;9.40;;
15354;SDS011;7777;52.254;9.618;2023-06-22T13:14:06;10.70;;;9.53;;
15354;SDS011;7777;52.254;9.618;2023-06-22T13:16:32;14.10;;;9.47;;
15354;SDS011;7777;52.254;9.618;2023-06-22T13:18:57;12.40;;;10.33;;
15354;SDS011;7777;52.254;9.618;2023-06-22T13:21:23;11.57;;;9.73;;
15354;SDS011;7777;52.254;9.618;2023-06-22T13:23:49;12.57;;;9.60;;
15354;SDS011;7777;52.254;9.618;2023-06-22T13:26:15;10.40;;;9.27;;
15354;SDS011;7777;52.254;9.618;2023-06-22T13:28:40;11.83;;;8.50;;
15354;SDS011;7777;52.254;9.618;2023-06-22T13:31:06;12.33;;;9.17;;
15354;SDS011;7777;52.254;9.618;2023-06-22T13:33:32;10.33;;;8.17;;
15354;SDS011;7777;52.254;9.618;2023-06-22T13:35:58;8.27;;;7.37;;
15354;SDS011;7777;52.254;9.618;2023-06-22T13:38:23;9.37;;;7.33;;
15354;SDS011;7777;52.254;9.618;2023-06-22T13:40:49;9.63;;;8.03;;
15354;SDS011;7777;52.254;9.618;2023-06-22T13:43:15;8.97;;;7.63;;
15354;SDS011;7777;52.254;9.618;2023-06-22T13:45:42;11.57;;;7.93;;
15354;SDS011;7777;52.254;9.618;2023-06-22T13:48:08;7.87;;;7.07;;
15354;SDS011;7777;52.254;9.618;2023-06-22T13:50:34;7.73;;;6.73;;
15354;SDS011;7777;52.254;9.618;2023-06-22T13:53:00;10.20;;;8.43;;
15354;SDS011;7777;52.254;9.618;2023-06-22T13:55:25;9.67;;;8.00;;
15354;SDS011;7777;52.254;9.618;2023-06-22T13:57:51;10.20;;;9.00;;
15354;SDS011;7777;52.254;9.618;2023-06-22T14:00:18;11.57;;;9.60;;
15354;SDS011;7777;52.254;9.618;2023-06-22T14:02:44;11.57;;;9.97;;
15354;SDS011;7777;52.254;9.618;2023-06-22T14:05:10;11.13;;;10.07;;
15354;SDS011;7777;52.254;9.618;2023-06-22T14:07:36;12.50;;;10.00;;
15354;SDS011;7777;52.254;9.618;2023-06-22T14:10:02;11.00;;;9.83;;
15354;SDS011;7777;52.254;9.618;2023-06-22T14:12:29;10.57;;;9.43;;
15354;SDS011;7777;52.254;9.618;2023-06-22T14:14:55;11.17;;;9.97;;
15354;SDS011;7777;52.254;9.618;2023-06-22T14:17:22;10.50;;;9.37;;
15354;SDS011;7777;52.254;9.618;2023-06-22T14:19:50;12.17;;;10.03;;
15354;SDS011;7777;52.254;9.618;2023-06-22T14:22:20;12.13;;;10.77;;
15354;SDS011;7777;52.254;9.618;2023-06-22T14:24:47;12.97;;;11.67;;
15354;SDS011;7777;52.254;9.618;2023-06-22T14:27:13;13.70;;;12.37;;
15354;SDS011;7777;52.254;9.618;2023-06-22T14:29:40;14.57;;;13.17;;
15354;SDS011;7777;52.254;9.618;2023-06-22T14:32:06;13.30;;;11.93;;
15354;SDS011;7777;52.254;9.618;2023-06-22T14:34:33;15.70;;;12.73;;
15354;SDS011;7777;52.254;9.618;2023-06-22T14:37:05;13.83;;;12.40;;
15354;SDS011;7777;52.254;9.618;2023-06-22T14:39:32;14.60;;;12.70;;
15354;SDS011;7777;52.254;9.618;2023-06-22T14:41:58;13.50;;;12.20;;
15354;SDS011;7777;52.254;9.618;2023-06-22T14:44:25;16.03;;;13.50;;
15354;SDS011;7777;52.254;9.618;2023-06-22T14:46:54;15.60;;;13.90;;
15354;SDS011;7777;52.254;9.618;2023-06-22T14:49:20;14.63;;;13.13;;
15354;SDS011;7777;52.254;9.618;2023-06-22T14:51:46;14.60;;;13.10;;
15354;SDS011;7777;52.254;9.618;2023-06-22T14:54:12;15.83;;;13.00;;
15354;SDS011;7777;52.254;9.618;2023-06-22T14:56:37;15.53;;;13.37;;